sensor_id;sensor_type;location;lat;lon;timestamp;pressure;altitude;pressure_sealevel;temperature;humidity
14689;BME280;7432;48.728;9.154;2023-02-12T00:00:47;98488.38;;;4.75;83.60
14689;BME280;7432;48.728;9.154;2023-02-12T00:03:15;98487.47;;;4.76;83.61
14689;BME280;7432;48.728;9.154;2023-02-12T00:05:41;98486.72;;;4.74;83.94
14689;BME280;7432;48.728;9.154;2023-02-12T00:08:08;98477.41;;;4.73;84.10
14689;BME280;7432;48.728;9.154;2023-02-12T00:10:39;98483.44;;;4.72;84.08
14689;BME280;7432;48.728;9.154;2023-02-12T00:13:05;98484.25;;;4.72;84.24
14689;BME280;7432;48.728;9.154;2023-02-12T00:15:32;98489.28;;;4.74;84.32
14689;BME280;7432;48.728;9.154;2023-02-12T00:17:59;98492.72;;;4.73;84.07
14689;BME280;7432;48.728;9.154;2023-02-12T00:20:26;98490.41;;;4.68;84.67
14689;BME280;7432;48.728;9.154;2023-02-12T00:22:53;98491.97;;;4.71;84.55
14689;BME280;7432;48.728;9.154;2023-02-12T00:25:19;98486.97;;;4.69;84.32
14689;BME280;7432;48.728;9.154;2023-02-12T00:27:46;98490.25;;;4.71;84.19
14689;BME280;7432;48.728;9.154;2023-02-12T00:30:12;98493.56;;;4.73;84.38
14689;BME280;7432;48.728;9.154;2023-02-12T00:32:39;98482.59;;;4.71;84.62
14689;BME280;7432;48.728;9.154;2023-02-12T00:35:06;98493.63;;;4.72;84.65
14689;BME280;7432;48.728;9.154;2023-02-12T00:37:34;98494.47;;;4.72;84.42
14689;BME280;7432;48.728;9.154;2023-02-12T00:40:00;98498.59;;;4.75;84.30
14689;BME280;7432;48.728;9.154;2023-02-12T00:42:26;98489.38;;;4.72;83.97
14689;BME280;7432;48.728;9.154;2023-02-12T00:44:53;98501.16;;;4.75;84.90
14689;BME280;7432;48.728;9.154;2023-02-12T00:47:19;98502.88;;;4.74;84.99
14689;BME280;7432;48.728;9.154;2023-02-12T00:49:45;98489.44;;;4.71;84.42
14689;BME280;7432;48.728;9.154;2023-02-12T00:52:12;98501.91;;;4.77;83.95
14689;BME280;7432;48.728;9.154;2023-02-12T00:54:39;98512.16;;;4.75;84.39
14689;BME280;7432;48.728;9.154;2023-02-12T00:57:06;98511.34;;;4.75;84.64
14689;BME280;7432;48.728;9.154;2023-02-12T00:59:32;98516.38;;;4.76;84.91
14689;BME280;7432;48.728;9.154;2023-02-12T01:02:00;98502.03;;;4.74;84.70
14689;BME280;7432;48.728;9.154;2023-02-12T01:04:27;98501.94;;;4.75;85.07
14689;BME280;7432;48.728;9.154;2023-02-12T01:06:53;98498.50;;;4.76;85.03
14689;BME280;7432;48.728;9.154;2023-02-12T01:09:19;98500.16;;;4.77;84.94
14689;BME280;7432;48.728;9.154;2023-02-12T01:11:47;98510.53;;;4.74;84.63
14689;BME280;7432;48.728;9.154;2023-02-12T01:14:13;98507.97;;;4.74;85.06
14689;BME280;7432;48.728;9.154;2023-02-12T01:16:40;98505.28;;;4.77;85.20
14689;BME280;7432;48.728;9.154;2023-02-12T01:19:06;98504.31;;;4.80;85.09
14689;BME280;7432;48.728;9.154;2023-02-12T01:21:33;98507.75;;;4.79;84.98
14689;BME280;7432;48.728;9.154;2023-02-12T01:24:00;98497.69;;;4.76;84.89
14689;BME280;7432;48.728;9.154;2023-02-12T01:26:28;98499.41;;;4.75;85.26
14689;BME280;7432;48.728;9.154;2023-02-12T01:28:59;98503.63;;;4.76;85.28
14689;BME280;7432;48.728;9.154;2023-02-12T01:31:27;98507.97;;;4.74;85.00
14689;BME280;7432;48.728;9.154;2023-02-12T01:33:56;98499.41;;;4.75;84.98
14689;BME280;7432;48.728;9.154;2023-02-12T01:36:24;98506.25;;;4.75;85.27
14689;BME280;7432;48.728;9.154;2023-02-12T01:38:51;98498.66;;;4.73;85.33
14689;BME280;7432;48.728;9.154;2023-02-12T01:41:19;98502.03;;;4.74;85.17
14689;BME280;7432;48.728;9.154;2023-02-12T01:44:09;98508.94;;;4.72;85.78
14689;BME280;7432;48.728;9.154;2023-02-12T01:46:36;98508.19;;;4.70;85.79
14689;BME280;7432;48.728;9.154;2023-02-12T01:49:04;98496.19;;;4.72;85.49
14689;BME280;7432;48.728;9.154;2023-02-12T01:51:32;98498.28;;;4.64;85.46
14689;BME280;7432;48.728;9.154;2023-02-12T01:54:04;98503.06;;;4.70;86.01
14689;BME280;7432;48.728;9.154;2023-02-12T01:56:32;98496.34;;;4.69;85.90
14689;BME280;7432;48.728;9.154;2023-02-12T01:58:58;98491.28;;;4.67;86.10
14689;BME280;7432;48.728;9.154;2023-02-12T02:01:28;98495.50;;;4.68;86.26
14689;BME280;7432;48.728;9.154;2023-02-12T02:03:59;98497.22;;;4.68;86.44
14689;BME280;7432;48.728;9.154;2023-02-12T02:06:30;98492.22;;;4.66;86.14
14689;BME280;7432;48.728;9.154;2023-02-12T02:08:57;98497.97;;;4.70;86.17
14689;BME280;7432;48.728;9.154;2023-02-12T02:11:23;98494.81;;;4.65;86.13
14689;BME280;7432;48.728;9.154;2023-02-12T02:14:07;98493.94;;;4.66;86.33
14689;BME280;7432;48.728;9.154;2023-02-12T02:16:58;98486.38;;;4.64;86.47
14689;BME280;7432;48.728;9.154;2023-02-12T02:19:38;98497.38;;;4.65;86.27
14689;BME280;7432;48.728;9.154;2023-02-12T02:22:28;98481.09;;;4.67;86.44
14689;BME280;7432;48.728;9.154;2023-02-12T02:25:17;98473.44;;;4.67;86.67
14689;BME280;7432;48.728;9.154;2023-02-12T02:27:55;98470.00;;;4.68;86.30
14689;BME280;7432;48.728;9.154;2023-02-12T02:30:34;98476.97;;;4.65;86.91
14689;BME280;7432;48.728;9.154;2023-02-12T02:33:21;98474.41;;;4.65;86.77
14689;BME280;7432;48.728;9.154;2023-02-12T02:35:54;98469.44;;;4.62;86.97
14689;BME280;7432;48.728;9.154;2023-02-12T02:38:29;98467.69;;;4.64;86.58
14689;BME280;7432;48.728;9.154;2023-02-12T02:41:03;98469.41;;;4.63;86.95
14689;BME280;7432;48.728;9.154;2023-02-12T02:43:34;98461.50;;;4.68;86.73
14689;BME280;7432;48.728;9.154;2023-02-12T02:46:05;98462.47;;;4.65;86.82
14689;BME280;7432;48.728;9.154;2023-02-12T02:48:35;98471.84;;;4.65;87.01
14689;BME280;7432;48.728;9.154;2023-02-12T02:51:05;98464.28;;;4.63;86.45
14689;BME280;7432;48.728;9.154;2023-02-12T02:53:37;98458.34;;;4.63;86.86
14689;BME280;7432;48.728;9.154;2023-02-12T02:56:06;98468.56;;;4.63;87.22
14689;BME280;7432;48.728;9.154;2023-02-12T02:58:37;98465.03;;;4.65;87.37
14689;BME280;7432;48.728;9.154;2023-02-12T03:01:08;98463.41;;;4.64;87.22
14689;BME280;7432;48.728;9.154;2023-02-12T03:03:40;98464.16;;;4.66;87.07
14689;BME280;7432;48.728;9.154;2023-02-12T03:06:09;98463.91;;;4.71;86.77
14689;BME280;7432;48.728;9.154;2023-02-12T03:08:40;98463.84;;;4.72;86.65
14689;BME280;7432;48.728;9.154;2023-02-12T03:11:11;98462.25;;;4.70;86.92
14689;BME280;7432;48.728;9.154;2023-02-12T03:13:42;98461.50;;;4.68;86.66
14689;BME280;7432;48.728;9.154;2023-02-12T03:16:15;98477.66;;;4.68;86.96
14689;BME280;7432;48.728;9.154;2023-02-12T03:18:46;98456.78;;;4.60;87.06
14689;BME280;7432;48.728;9.154;2023-02-12T03:21:18;98469.84;;;4.71;87.09
14689;BME280;7432;48.728;9.154;2023-02-12T03:23:51;98472.41;;;4.71;86.79
14689;BME280;7432;48.728;9.154;2023-02-12T03:26:24;98467.34;;;4.70;87.10
14689;BME280;7432;48.728;9.154;2023-02-12T03:28:52;98480.06;;;4.71;87.24
14689;BME280;7432;48.728;9.154;2023-02-12T03:31:26;98481.78;;;4.71;87.06
14689;BME280;7432;48.728;9.154;2023-02-12T03:34:03;98479.38;;;4.68;86.94
14689;BME280;7432;48.728;9.154;2023-02-12T03:36:37;98476.97;;;4.65;87.54
14689;BME280;7432;48.728;9.154;2023-02-12T03:39:10;98475.19;;;4.67;87.42
14689;BME280;7432;48.728;9.154;2023-02-12T03:41:41;98475.19;;;4.67;87.04
14689;BME280;7432;48.728;9.154;2023-02-12T03:44:16;98477.75;;;4.67;87.55
14689;BME280;7432;48.728;9.154;2023-02-12T03:46:55;98465.72;;;4.69;87.38
14689;BME280;7432;48.728;9.154;2023-02-12T03:49:28;98466.47;;;4.71;86.98
14689;BME280;7432;48.728;9.154;2023-02-12T03:51:57;98475.19;;;4.67;87.10
14689;BME280;7432;48.728;9.154;2023-02-12T03:54:24;98486.19;;;4.67;87.54
14689;BME280;7432;48.728;9.154;2023-02-12T03:56:54;98471.66;;;4.69;87.28
14689;BME280;7432;48.728;9.154;2023-02-12T03:59:24;98484.47;;;4.68;87.12
14689;BME280;7432;48.728;9.154;2023-02-12T04:01:53;98475.19;;;4.67;86.77
14689;BME280;7432;48.728;9.154;2023-02-12T04:04:21;98483.72;;;4.66;87.39
14689;BME280;7432;48.728;9.154;2023-02-12T04:06:49;98488.81;;;4.66;87.07
14689;BME280;7432;48.728;9.154;2023-02-12T04:09:17;98489.56;;;4.68;87.60
14689;BME280;7432;48.728;9.154;2023-02-12T04:11:55;98480.34;;;4.65;86.80
14689;BME280;7432;48.728;9.154;2023-02-12T04:14:28;98492.28;;;4.65;87.19
14689;BME280;7432;48.728;9.154;2023-02-12T04:17:02;98488.91;;;4.64;87.23
14689;BME280;7432;48.728;9.154;2023-02-12T04:19:34;98500.75;;;4.65;86.91
14689;BME280;7432;48.728;9.154;2023-02-12T04:22:13;98483.03;;;4.62;87.16
14689;BME280;7432;48.728;9.154;2023-02-12T04:24:48;98489.94;;;4.60;87.17
14689;BME280;7432;48.728;9.154;2023-02-12T04:27:19;98489.94;;;4.60;87.21
14689;BME280;7432;48.728;9.154;2023-02-12T04:29:50;98492.03;;;4.52;87.58
14689;BME280;7432;48.728;9.154;2023-02-12T04:32:24;98502.09;;;4.55;87.52
14689;BME280;7432;48.728;9.154;2023-02-12T04:34:57;98503.06;;;4.53;87.20
14689;BME280;7432;48.728;9.154;2023-02-12T04:37:31;98509.06;;;4.52;87.20
14689;BME280;7432;48.728;9.154;2023-02-12T04:40:02;98501.28;;;4.55;87.28
14689;BME280;7432;48.728;9.154;2023-02-12T04:42:29;98500.53;;;4.53;87.68
14689;BME280;7432;48.728;9.154;2023-02-12T04:44:55;98499.47;;;4.57;87.59
14689;BME280;7432;48.728;9.154;2023-02-12T04:47:24;98506.22;;;4.58;87.30
14689;BME280;7432;48.728;9.154;2023-02-12T04:49:51;98500.38;;;4.56;87.54
14689;BME280;7432;48.728;9.154;2023-02-12T04:52:17;98503.72;;;4.56;88.23
14689;BME280;7432;48.728;9.154;2023-02-12T04:54:43;98507.94;;;4.57;88.15
14689;BME280;7432;48.728;9.154;2023-02-12T04:57:10;98507.13;;;4.57;88.29
14689;BME280;7432;48.728;9.154;2023-02-12T04:59:36;98516.50;;;4.56;88.18
14689;BME280;7432;48.728;9.154;2023-02-12T05:02:02;98516.44;;;4.58;87.78
14689;BME280;7432;48.728;9.154;2023-02-12T05:04:30;98505.41;;;4.57;87.34
14689;BME280;7432;48.728;9.154;2023-02-12T05:06:57;98513.44;;;4.50;88.06
14689;BME280;7432;48.728;9.154;2023-02-12T05:09:23;98510.94;;;4.48;87.26
14689;BME280;7432;48.728;9.154;2023-02-12T05:11:49;98512.50;;;4.51;87.03
14689;BME280;7432;48.728;9.154;2023-02-12T05:14:16;98510.88;;;4.50;87.72
14689;BME280;7432;48.728;9.154;2023-02-12T05:16:42;98510.72;;;4.53;86.81
14689;BME280;7432;48.728;9.154;2023-02-12T05:19:08;98499.25;;;4.44;86.89
14689;BME280;7432;48.728;9.154;2023-02-12T05:21:37;98498.34;;;4.45;86.16
14689;BME280;7432;48.728;9.154;2023-02-12T05:24:04;98505.03;;;4.48;86.84
14689;BME280;7432;48.728;9.154;2023-02-12T05:26:30;98501.78;;;4.44;86.98
14689;BME280;7432;48.728;9.154;2023-02-12T05:28:57;98508.56;;;4.45;87.26
14689;BME280;7432;48.728;9.154;2023-02-12T05:31:23;98501.69;;;4.46;86.98
14689;BME280;7432;48.728;9.154;2023-02-12T05:33:49;98501.69;;;4.46;87.42
14689;BME280;7432;48.728;9.154;2023-02-12T05:36:18;98507.78;;;4.43;87.42
14689;BME280;7432;48.728;9.154;2023-02-12T05:38:46;98511.16;;;4.44;86.97
14689;BME280;7432;48.728;9.154;2023-02-12T05:41:14;98510.41;;;4.42;86.82
14689;BME280;7432;48.728;9.154;2023-02-12T05:43:41;98507.03;;;4.41;87.31
14689;BME280;7432;48.728;9.154;2023-02-12T05:46:08;98506.94;;;4.43;87.01
14689;BME280;7432;48.728;9.154;2023-02-12T05:48:35;98499.75;;;4.34;87.38
14689;BME280;7432;48.728;9.154;2023-02-12T05:51:02;98505.50;;;4.37;87.57
14689;BME280;7432;48.728;9.154;2023-02-12T05:53:29;98509.50;;;4.43;87.15
14689;BME280;7432;48.728;9.154;2023-02-12T05:56:09;98508.00;;;4.39;87.56
14689;BME280;7432;48.728;9.154;2023-02-12T05:58:36;98516.63;;;4.36;87.55
14689;BME280;7432;48.728;9.154;2023-02-12T06:01:08;98511.44;;;4.38;87.93
14689;BME280;7432;48.728;9.154;2023-02-12T06:03:34;98505.59;;;4.36;87.82
14689;BME280;7432;48.728;9.154;2023-02-12T06:06:01;98502.16;;;4.37;88.16
14689;BME280;7432;48.728;9.154;2023-02-12T06:08:27;98506.66;;;4.32;88.01
14689;BME280;7432;48.728;9.154;2023-02-12T06:10:54;98508.28;;;4.33;88.15
14689;BME280;7432;48.728;9.154;2023-02-12T06:13:21;98510.78;;;4.34;88.66
14689;BME280;7432;48.728;9.154;2023-02-12T06:15:48;98504.72;;;4.37;88.29
14689;BME280;7432;48.728;9.154;2023-02-12T06:18:14;98506.34;;;4.38;88.31
14689;BME280;7432;48.728;9.154;2023-02-12T06:20:40;98510.78;;;4.34;87.89
14689;BME280;7432;48.728;9.154;2023-02-12T06:23:07;98504.56;;;4.40;88.71
14689;BME280;7432;48.728;9.154;2023-02-12T06:25:33;98505.50;;;4.37;88.42
14689;BME280;7432;48.728;9.154;2023-02-12T06:27:59;98511.53;;;4.36;88.71
14689;BME280;7432;48.728;9.154;2023-02-12T06:30:27;98504.63;;;4.38;88.17
14689;BME280;7432;48.728;9.154;2023-02-12T06:32:55;98503.88;;;4.36;88.30
14689;BME280;7432;48.728;9.154;2023-02-12T06:35:22;98514.81;;;4.38;88.75
14689;BME280;7432;48.728;9.154;2023-02-12T06:37:48;98518.06;;;4.42;88.19
14689;BME280;7432;48.728;9.154;2023-02-12T06:40:15;98526.47;;;4.44;88.15
14689;BME280;7432;48.728;9.154;2023-02-12T06:42:41;98530.88;;;4.40;88.21
14689;BME280;7432;48.728;9.154;2023-02-12T06:45:08;98526.59;;;4.41;87.84
14689;BME280;7432;48.728;9.154;2023-02-12T06:47:36;98520.53;;;4.43;88.30
14689;BME280;7432;48.728;9.154;2023-02-12T06:50:03;98526.47;;;4.44;88.28
14689;BME280;7432;48.728;9.154;2023-02-12T06:52:29;98526.41;;;4.45;87.73
14689;BME280;7432;48.728;9.154;2023-02-12T06:54:56;98523.84;;;4.45;88.35
14689;BME280;7432;48.728;9.154;2023-02-12T06:57:22;98524.47;;;4.50;87.99
14689;BME280;7432;48.728;9.154;2023-02-12T06:59:48;98539.16;;;4.45;87.82
14689;BME280;7432;48.728;9.154;2023-02-12T07:02:15;98536.44;;;4.48;87.74
14689;BME280;7432;48.728;9.154;2023-02-12T07:04:43;98534.66;;;4.50;87.11
14689;BME280;7432;48.728;9.154;2023-02-12T07:07:09;98538.34;;;4.62;86.98
14689;BME280;7432;48.728;9.154;2023-02-12T07:09:35;98536.09;;;4.56;86.31
14689;BME280;7432;48.728;9.154;2023-02-12T07:12:02;98540.88;;;4.62;86.18
14689;BME280;7432;48.728;9.154;2023-02-12T07:14:28;98543.06;;;4.52;86.69
14689;BME280;7432;48.728;9.154;2023-02-12T07:16:55;98546.22;;;4.57;86.52
14689;BME280;7432;48.728;9.154;2023-02-12T07:19:22;98539.75;;;4.50;86.39
14689;BME280;7432;48.728;9.154;2023-02-12T07:21:50;98536.69;;;4.61;86.71
14689;BME280;7432;48.728;9.154;2023-02-12T07:24:16;98541.06;;;4.76;86.12
14689;BME280;7432;48.728;9.154;2023-02-12T07:26:43;98549.31;;;4.81;85.30
14689;BME280;7432;48.728;9.154;2023-02-12T07:29:10;98548.06;;;4.90;84.71
14689;BME280;7432;48.728;9.154;2023-02-12T07:31:37;98529.72;;;4.82;84.71
14689;BME280;7432;48.728;9.154;2023-02-12T07:34:04;98550.16;;;4.99;84.03
14689;BME280;7432;48.728;9.154;2023-02-12T07:36:31;98545.88;;;4.99;83.34
14689;BME280;7432;48.728;9.154;2023-02-12T07:39:00;98548.81;;;5.09;83.37
14689;BME280;7432;48.728;9.154;2023-02-12T07:41:28;98548.94;;;5.06;82.29
14689;BME280;7432;48.728;9.154;2023-02-12T07:43:56;98542.50;;;4.99;83.34
14689;BME280;7432;48.728;9.154;2023-02-12T07:46:25;98546.69;;;5.17;82.13
14689;BME280;7432;48.728;9.154;2023-02-12T07:48:54;98554.81;;;5.25;82.51
14689;BME280;7432;48.728;9.154;2023-02-12T07:51:21;98546.78;;;5.32;82.00
14689;BME280;7432;48.728;9.154;2023-02-12T07:53:49;98533.19;;;5.32;81.49
14689;BME280;7432;48.728;9.154;2023-02-12T07:56:19;98550.13;;;5.50;81.33
14689;BME280;7432;48.728;9.154;2023-02-12T07:58:47;98545.53;;;5.57;81.45
14689;BME280;7432;48.728;9.154;2023-02-12T08:01:16;98553.84;;;5.60;81.53
14689;BME280;7432;48.728;9.154;2023-02-12T08:03:43;98536.72;;;5.62;81.57
14689;BME280;7432;48.728;9.154;2023-02-12T08:06:12;98549.25;;;5.67;80.85
14689;BME280;7432;48.728;9.154;2023-02-12T08:08:39;98546.25;;;5.76;80.69
14689;BME280;7432;48.728;9.154;2023-02-12T08:11:06;98554.13;;;5.71;80.88
14689;BME280;7432;48.728;9.154;2023-02-12T08:13:36;98552.91;;;5.63;80.50
14689;BME280;7432;48.728;9.154;2023-02-12T08:16:04;98543.31;;;5.66;80.64
14689;BME280;7432;48.728;9.154;2023-02-12T08:18:32;98543.53;;;5.46;81.25
14689;BME280;7432;48.728;9.154;2023-02-12T08:21:03;98542.19;;;5.22;82.58
14689;BME280;7432;48.728;9.154;2023-02-12T08:23:30;98548.41;;;5.33;81.64
14689;BME280;7432;48.728;9.154;2023-02-12T08:26:09;98546.59;;;5.35;81.35
14689;BME280;7432;48.728;9.154;2023-02-12T08:28:40;98538.88;;;5.37;81.89
14689;BME280;7432;48.728;9.154;2023-02-12T08:31:09;98529.09;;;5.45;81.75
14689;BME280;7432;48.728;9.154;2023-02-12T08:33:36;98541.34;;;5.71;80.12
14689;BME280;7432;48.728;9.154;2023-02-12T08:36:04;98537.28;;;5.84;79.55
14689;BME280;7432;48.728;9.154;2023-02-12T08:38:32;98543.16;;;6.02;78.74
14689;BME280;7432;48.728;9.154;2023-02-12T08:41:03;98542.59;;;6.13;78.39
14689;BME280;7432;48.728;9.154;2023-02-12T08:43:30;98540.06;;;6.28;78.33
14689;BME280;7432;48.728;9.154;2023-02-12T08:46:02;98542.19;;;6.36;78.09
14689;BME280;7432;48.728;9.154;2023-02-12T08:48:29;98541.09;;;6.55;78.26
14689;BME280;7432;48.728;9.154;2023-02-12T08:50:55;98552.53;;;6.64;76.50
14689;BME280;7432;48.728;9.154;2023-02-12T08:53:22;98549.13;;;6.79;76.37
14689;BME280;7432;48.728;9.154;2023-02-12T08:55:48;98550.22;;;6.75;75.78
14689;BME280;7432;48.728;9.154;2023-02-12T08:58:15;98549.47;;;7.03;74.98
14689;BME280;7432;48.728;9.154;2023-02-12T09:00:42;98554.22;;;6.95;75.21
14689;BME280;7432;48.728;9.154;2023-02-12T09:03:09;98551.41;;;6.99;75.46
14689;BME280;7432;48.728;9.154;2023-02-12T09:05:37;98549.06;;;6.65;77.74
14689;BME280;7432;48.728;9.154;2023-02-12T09:08:04;98547.91;;;6.71;77.81
14689;BME280;7432;48.728;9.154;2023-02-12T09:10:30;98558.94;;;6.87;77.15
14689;BME280;7432;48.728;9.154;2023-02-12T09:12:58;98546.47;;;6.81;78.12
14689;BME280;7432;48.728;9.154;2023-02-12T09:15:24;98555.50;;;6.72;79.44
14689;BME280;7432;48.728;9.154;2023-02-12T09:17:50;98559.28;;;6.96;78.26
14689;BME280;7432;48.728;9.154;2023-02-12T09:20:18;98549.41;;;7.04;78.47
14689;BME280;7432;48.728;9.154;2023-02-12T09:22:45;98550.34;;;7.18;77.88
14689;BME280;7432;48.728;9.154;2023-02-12T09:25:11;98549.38;;;7.34;77.54
14689;BME280;7432;48.728;9.154;2023-02-12T09:27:37;98553.56;;;7.21;78.68
14689;BME280;7432;48.728;9.154;2023-02-12T09:30:05;98548.66;;;7.02;79.22
14689;BME280;7432;48.728;9.154;2023-02-12T09:32:31;98555.94;;;7.10;79.45
14689;BME280;7432;48.728;9.154;2023-02-12T09:34:57;98559.03;;;7.15;80.05
14689;BME280;7432;48.728;9.154;2023-02-12T09:37:25;98558.44;;;6.96;80.72
14689;BME280;7432;48.728;9.154;2023-02-12T09:39:52;98563.72;;;6.93;80.50
14689;BME280;7432;48.728;9.154;2023-02-12T09:42:28;98555.34;;;7.05;79.51
14689;BME280;7432;48.728;9.154;2023-02-12T09:45:02;98555.66;;;7.14;80.81
14689;BME280;7432;48.728;9.154;2023-02-12T09:47:35;98563.56;;;7.40;78.80
14689;BME280;7432;48.728;9.154;2023-02-12T09:50:16;98559.28;;;7.40;79.35
14689;BME280;7432;48.728;9.154;2023-02-12T09:52:51;98550.16;;;7.64;78.46
14689;BME280;7432;48.728;9.154;2023-02-12T09:55:19;98557.72;;;7.66;79.15
14689;BME280;7432;48.728;9.154;2023-02-12T09:57:47;98560.59;;;7.75;77.82
14689;BME280;7432;48.728;9.154;2023-02-12T10:00:15;98565.88;;;7.58;78.16
14689;BME280;7432;48.728;9.154;2023-02-12T10:02:43;98567.53;;;7.45;78.02
14689;BME280;7432;48.728;9.154;2023-02-12T10:05:15;98562.47;;;7.44;78.50
14689;BME280;7432;48.728;9.154;2023-02-12T10:08:06;98557.53;;;7.41;78.58
14689;BME280;7432;48.728;9.154;2023-02-12T10:10:45;98549.56;;;7.45;78.85
14689;BME280;7432;48.728;9.154;2023-02-12T10:13:17;98560.22;;;7.53;78.16
14689;BME280;7432;48.728;9.154;2023-02-12T10:15:54;98563.84;;;7.49;79.27
14689;BME280;7432;48.728;9.154;2023-02-12T10:18:44;98552.13;;;7.31;78.61
14689;BME280;7432;48.728;9.154;2023-02-12T10:21:27;98559.72;;;7.47;78.73
14689;BME280;7432;48.728;9.154;2023-02-12T10:24:17;98550.84;;;7.52;78.05
14689;BME280;7432;48.728;9.154;2023-02-12T10:26:51;98555.97;;;7.38;78.75
14689;BME280;7432;48.728;9.154;2023-02-12T10:29:23;98557.69;;;7.24;79.19
14689;BME280;7432;48.728;9.154;2023-02-12T10:31:53;98559.94;;;7.14;80.01
14689;BME280;7432;48.728;9.154;2023-02-12T10:34:24;98555.19;;;7.22;78.99
14689;BME280;7432;48.728;9.154;2023-02-12T10:36:52;98553.56;;;7.35;79.77
14689;BME280;7432;48.728;9.154;2023-02-12T10:39:24;98545.19;;;7.61;79.55
14689;BME280;7432;48.728;9.154;2023-02-12T10:41:55;98547.53;;;7.36;79.54
14689;BME280;7432;48.728;9.154;2023-02-12T10:44:23;98548.84;;;7.57;77.92
14689;BME280;7432;48.728;9.154;2023-02-12T10:46:50;98543.06;;;7.68;79.09
14689;BME280;7432;48.728;9.154;2023-02-12T10:49:18;98540.31;;;7.85;77.30
14689;BME280;7432;48.728;9.154;2023-02-12T10:51:55;98538.53;;;7.73;77.87
14689;BME280;7432;48.728;9.154;2023-02-12T10:54:38;98537.94;;;7.96;77.87
14689;BME280;7432;48.728;9.154;2023-02-12T10:57:10;98534.34;;;7.99;77.69
14689;BME280;7432;48.728;9.154;2023-02-12T10:59:37;98535.53;;;8.07;76.05
14689;BME280;7432;48.728;9.154;2023-02-12T11:02:04;98535.00;;;8.02;76.64
14689;BME280;7432;48.728;9.154;2023-02-12T11:04:41;98530.19;;;7.84;78.96
14689;BME280;7432;48.728;9.154;2023-02-12T11:07:08;98527.59;;;7.98;76.96
14689;BME280;7432;48.728;9.154;2023-02-12T11:09:38;98528.34;;;7.86;77.70
14689;BME280;7432;48.728;9.154;2023-02-12T11:12:18;98525.69;;;7.73;78.33
14689;BME280;7432;48.728;9.154;2023-02-12T11:14:48;98528.69;;;7.94;77.27
14689;BME280;7432;48.728;9.154;2023-02-12T11:17:21;98527.50;;;7.71;78.40
14689;BME280;7432;48.728;9.154;2023-02-12T11:20:01;98528.78;;;7.92;76.68
14689;BME280;7432;48.728;9.154;2023-02-12T11:22:28;98528.03;;;8.04;77.75
14689;BME280;7432;48.728;9.154;2023-02-12T11:24:59;98525.75;;;8.00;78.11
14689;BME280;7432;48.728;9.154;2023-02-12T11:27:28;98521.66;;;8.24;76.67
14689;BME280;7432;48.728;9.154;2023-02-12T11:30:15;98518.75;;;8.16;76.50
14689;BME280;7432;48.728;9.154;2023-02-12T11:32:42;98523.34;;;8.11;77.21
14689;BME280;7432;48.728;9.154;2023-02-12T11:35:13;98521.16;;;8.05;77.62
14689;BME280;7432;48.728;9.154;2023-02-12T11:37:43;98523.19;;;8.00;77.37
14689;BME280;7432;48.728;9.154;2023-02-12T11:40:21;98518.44;;;7.94;78.80
14689;BME280;7432;48.728;9.154;2023-02-12T11:42:51;98519.31;;;8.07;77.99
14689;BME280;7432;48.728;9.154;2023-02-12T11:45:29;98511.97;;;8.15;77.43
14689;BME280;7432;48.728;9.154;2023-02-12T11:47:57;98513.81;;;8.27;78.25
14689;BME280;7432;48.728;9.154;2023-02-12T11:50:25;98522.56;;;8.37;77.18
14689;BME280;7432;48.728;9.154;2023-02-12T11:52:57;98508.31;;;8.19;77.16
14689;BME280;7432;48.728;9.154;2023-02-12T11:55:29;98511.13;;;8.55;77.16
14689;BME280;7432;48.728;9.154;2023-02-12T11:58:02;98509.88;;;8.48;76.35
14689;BME280;7432;48.728;9.154;2023-02-12T12:00:33;98510.72;;;8.49;76.88
14689;BME280;7432;48.728;9.154;2023-02-12T12:03:08;98513.44;;;8.19;77.52
14689;BME280;7432;48.728;9.154;2023-02-12T12:05:41;98499.28;;;7.85;79.75
14689;BME280;7432;48.728;9.154;2023-02-12T12:08:15;98499.78;;;8.18;78.09
14689;BME280;7432;48.728;9.154;2023-02-12T12:10:48;98505.06;;;8.44;78.10
14689;BME280;7432;48.728;9.154;2023-02-12T12:13:19;98502.16;;;8.36;77.45
14689;BME280;7432;48.728;9.154;2023-02-12T12:15:49;98507.19;;;8.37;77.57
14689;BME280;7432;48.728;9.154;2023-02-12T12:18:40;98514.19;;;8.48;77.59
14689;BME280;7432;48.728;9.154;2023-02-12T12:21:32;98508.47;;;8.44;76.57
14689;BME280;7432;48.728;9.154;2023-02-12T12:24:04;98482.00;;;8.15;77.62
14689;BME280;7432;48.728;9.154;2023-02-12T12:26:33;98500.31;;;8.38;76.96
14689;BME280;7432;48.728;9.154;2023-02-12T12:29:02;98505.66;;;8.47;76.48
14689;BME280;7432;48.728;9.154;2023-02-12T12:31:32;98493.84;;;8.71;76.60
14689;BME280;7432;48.728;9.154;2023-02-12T12:34:05;98492.06;;;8.99;75.34
14689;BME280;7432;48.728;9.154;2023-02-12T12:39:27;98495.34;;;9.01;74.53
14689;BME280;7432;48.728;9.154;2023-02-12T12:42:14;98493.28;;;8.54;75.99
14689;BME280;7432;48.728;9.154;2023-02-12T12:45:00;98498.38;;;8.41;76.99
14689;BME280;7432;48.728;9.154;2023-02-12T12:47:35;98496.31;;;8.19;77.68
14689;BME280;7432;48.728;9.154;2023-02-12T12:50:20;98491.59;;;8.26;77.46
14689;BME280;7432;48.728;9.154;2023-02-12T12:53:03;98483.75;;;8.29;78.20
14689;BME280;7432;48.728;9.154;2023-02-12T12:55:52;98483.34;;;8.35;77.80
14689;BME280;7432;48.728;9.154;2023-02-12T12:58:27;98480.41;;;8.41;77.58
14689;BME280;7432;48.728;9.154;2023-02-12T13:01:16;98482.28;;;8.52;76.86
14689;BME280;7432;48.728;9.154;2023-02-12T13:03:59;98479.41;;;8.56;76.15
14689;BME280;7432;48.728;9.154;2023-02-12T13:06:49;98471.53;;;8.32;77.52
14689;BME280;7432;48.728;9.154;2023-02-12T13:09:26;98469.50;;;8.38;76.99
14689;BME280;7432;48.728;9.154;2023-02-12T13:15:16;98460.91;;;8.51;77.32
14689;BME280;7432;48.728;9.154;2023-02-12T13:17:49;98460.91;;;8.39;78.15
14689;BME280;7432;48.728;9.154;2023-02-12T13:20:24;98460.06;;;8.38;78.22
14689;BME280;7432;48.728;9.154;2023-02-12T13:22:57;98457.78;;;8.33;77.29
14689;BME280;7432;48.728;9.154;2023-02-12T13:25:27;98459.53;;;8.33;77.86
14689;BME280;7432;48.728;9.154;2023-02-12T13:27:57;98449.81;;;8.24;77.11
14689;BME280;7432;48.728;9.154;2023-02-12T13:30:29;98460.59;;;8.02;79.26
14689;BME280;7432;48.728;9.154;2023-02-12T13:33:03;98457.97;;;7.90;79.29
14689;BME280;7432;48.728;9.154;2023-02-12T13:35:33;98459.72;;;7.89;79.18
14689;BME280;7432;48.728;9.154;2023-02-12T13:38:01;98450.66;;;7.84;80.79
14689;BME280;7432;48.728;9.154;2023-02-12T13:40:29;98446.06;;;7.89;81.06
14689;BME280;7432;48.728;9.154;2023-02-12T13:43:01;98446.44;;;7.83;81.06
14689;BME280;7432;48.728;9.154;2023-02-12T13:45:40;98443.28;;;7.65;82.02